Time;durP1;ratioP1;P1;durP2;ratioP2;P2;SDS_P1;SDS_P2;PMS_P1;PMS_P2;Temp;Humidity;BMP_temperature;BMP_pressure;BME280_temperature;BME280_humidity;BME280_pressure;Samples;Min_cycle;Max_cycle;Signal;HPM_P1;HPM_P2
2022/04/09 00:01:59;0.00;0.00;0.62;0.00;0.00;0.62;2.70;1.97;;;22.60;23.40;;;;;;2247183;61;20375;-69
2022/04/09 00:04:44;0.00;0.00;0.62;0.00;0.00;0.62;2.77;2.00;;;22.60;23.40;;;;;;2248142;61;20399;-66
2022/04/09 00:07:30;0.00;0.00;0.62;0.00;0.00;0.62;2.40;2.00;;;22.60;23.30;;;;;;2248011;61;20491;-66
2022/04/09 00:10:15;0.00;0.00;0.62;0.00;0.00;0.62;2.23;1.87;;;22.60;23.30;;;;;;2247668;61;20392;-65
2022/04/09 00:12:59;0.00;0.00;0.62;0.00;0.00;0.62;3.43;2.23;;;22.60;23.30;;;;;;2248014;61;20443;-66
2022/04/09 00:15:44;0.00;0.00;0.62;0.00;0.00;0.62;2.30;1.70;;;22.60;23.20;;;;;;2247686;61;20363;-65
2022/04/09 00:18:28;0.00;0.00;0.62;0.00;0.00;0.62;4.63;2.17;;;22.50;23.20;;;;;;2248107;61;20448;-66
2022/04/09 00:21:12;0.00;0.00;0.62;0.00;0.00;0.62;2.73;1.63;;;22.50;23.20;;;;;;2247623;61;20387;-65
2022/04/09 00:23:58;0.00;0.00;0.62;0.00;0.00;0.62;3.00;1.70;;;22.50;23.10;;;;;;2247859;61;20886;-65
2022/04/09 00:26:43;0.00;0.00;0.62;0.00;0.00;0.62;3.03;2.23;;;22.50;23.10;;;;;;2247611;61;20399;-71
2022/04/09 00:29:28;0.00;0.00;0.62;0.00;0.00;0.62;3.00;1.73;;;22.40;23.10;;;;;;2247177;61;20383;-68
2022/04/09 00:32:13;0.00;0.00;0.62;0.00;0.00;0.62;3.13;1.93;;;22.40;23.00;;;;;;2248173;61;20454;-66
2022/04/09 00:34:58;0.00;0.00;0.62;0.00;0.00;0.62;1.93;1.50;;;22.40;23.10;;;;;;2247737;61;20427;-65
2022/04/09 00:37:43;0.00;0.00;0.62;0.00;0.00;0.62;2.40;1.73;;;22.40;23.00;;;;;;2247953;61;20399;-65
2022/04/09 00:40:29;0.00;0.00;0.62;0.00;0.00;0.62;2.47;1.80;;;22.30;23.00;;;;;;2248378;61;20383;-66
2022/04/09 00:43:17;0.00;0.00;0.62;0.00;0.00;0.62;2.10;1.40;;;22.30;23.00;;;;;;2247565;61;20923;-67
2022/04/09 00:46:01;0.00;0.00;0.62;0.00;0.00;0.62;2.30;1.50;;;22.30;23.00;;;;;;2247688;61;20379;-65
2022/04/09 00:48:46;0.00;0.00;0.62;0.00;0.00;0.62;2.60;1.53;;;22.30;23.00;;;;;;2247720;61;20374;-66
2022/04/09 00:51:31;0.00;0.00;0.62;0.00;0.00;0.62;2.70;1.60;;;22.20;22.90;;;;;;2247706;61;20418;-66
2022/04/09 00:54:19;0.00;0.00;0.62;0.00;0.00;0.62;3.50;1.27;;;22.30;22.90;;;;;;2247871;61;20391;-66
2022/04/09 00:57:07;0.00;0.00;0.62;0.00;0.00;0.62;3.23;1.60;;;22.20;22.80;;;;;;2247388;61;20567;-63
2022/04/09 00:59:54;0.00;0.00;0.62;0.00;0.00;0.62;2.10;1.37;;;22.20;22.80;;;;;;2247321;61;20582;-65
2022/04/09 01:02:40;0.00;0.00;0.62;0.00;0.00;0.62;2.63;1.30;;;22.10;22.70;;;;;;2248324;61;20824;-65
2022/04/09 01:05:26;0.00;0.00;0.62;0.00;0.00;0.62;2.70;1.20;;;22.10;22.70;;;;;;2246915;61;20359;-66
2022/04/09 01:08:12;0.00;0.00;0.62;0.00;0.00;0.62;4.03;1.40;;;22.10;22.70;;;;;;2246884;61;20859;-66
2022/04/09 01:10:57;0.00;0.00;0.62;0.00;0.00;0.62;2.30;1.23;;;22.00;22.70;;;;;;2247406;61;20818;-70
2022/04/09 01:13:44;0.00;0.00;0.62;0.00;0.00;0.62;3.50;1.60;;;22.00;22.80;;;;;;2247778;61;20429;-66
2022/04/09 01:16:29;0.00;0.00;0.62;0.00;0.00;0.62;2.37;1.23;;;22.00;22.80;;;;;;2244605;61;20368;-64
2022/04/09 01:19:16;0.00;0.00;0.62;0.00;0.00;0.62;3.23;1.50;;;22.00;22.80;;;;;;2246611;61;20372;-64
2022/04/09 01:22:03;0.00;0.00;0.62;0.00;0.00;0.62;4.60;1.60;;;21.90;22.70;;;;;;2244408;61;20367;-66
2022/04/09 01:24:48;0.00;0.00;0.62;0.00;0.00;0.62;2.37;1.27;;;21.90;22.60;;;;;;2247710;61;20788;-65
2022/04/09 01:27:33;0.00;0.00;0.62;0.00;0.00;0.62;2.70;1.10;;;21.90;22.60;;;;;;2246990;61;20939;-66
2022/04/09 01:30:19;0.00;0.00;0.62;0.00;0.00;0.62;5.17;2.20;;;21.90;22.60;;;;;;2247423;61;20390;-66
2022/04/09 01:33:04;0.00;0.00;0.62;0.00;0.00;0.62;4.17;1.20;;;21.80;22.60;;;;;;2247550;61;20363;-66
2022/04/09 01:35:50;0.00;0.00;0.62;0.00;0.00;0.62;2.80;1.80;;;21.80;22.70;;;;;;2247694;61;20828;-70
2022/04/09 01:38:39;0.00;0.00;0.62;0.00;0.00;0.62;2.57;1.40;;;21.80;22.70;;;;;;2246570;61;20883;-66
2022/04/09 01:41:24;0.00;0.00;0.62;0.00;0.00;0.62;3.23;1.60;;;21.80;22.70;;;;;;2247885;61;20479;-66
2022/04/09 01:44:20;0.00;0.00;0.62;0.00;0.00;0.62;2.33;1.10;;;21.70;22.50;;;;;;2248501;61;20367;-65
2022/04/09 01:47:05;0.00;0.00;0.62;0.00;0.00;0.62;4.23;1.50;;;21.70;22.50;;;;;;2248470;61;20395;-66
2022/04/09 01:49:50;0.00;0.00;0.62;0.00;0.00;0.62;3.20;1.53;;;21.60;22.50;;;;;;2247779;61;20407;-65
2022/04/09 01:52:34;0.00;0.00;0.62;0.00;0.00;0.62;2.73;1.23;;;21.60;22.40;;;;;;2247966;61;20360;-66
2022/04/09 01:55:20;0.00;0.00;0.62;0.00;0.00;0.62;4.13;1.20;;;21.60;22.40;;;;;;2247938;61;20362;-65
2022/04/09 01:58:06;0.00;0.00;0.62;0.00;0.00;0.62;3.97;1.47;;;21.50;22.40;;;;;;2247586;61;20395;-66
2022/04/09 02:00:58;0.00;0.00;0.62;0.00;0.00;0.62;5.57;1.20;;;21.50;22.40;;;;;;2247625;61;20426;-65
2022/04/09 02:03:45;0.00;0.00;0.62;0.00;0.00;0.62;2.60;1.50;;;21.40;22.30;;;;;;2247958;61;20363;-66
2022/04/09 02:06:32;0.00;0.00;0.62;0.00;0.00;0.62;4.17;1.83;;;21.40;22.30;;;;;;2248073;61;20402;-64
2022/04/09 02:09:17;0.00;0.00;0.62;0.00;0.00;0.62;2.33;1.10;;;21.40;22.40;;;;;;2247960;61;20849;-65
2022/04/09 02:12:06;0.00;0.00;0.62;0.00;0.00;0.62;4.60;1.73;;;21.30;22.40;;;;;;2247596;61;20370;-65
2022/04/09 02:14:51;0.00;0.00;0.62;0.00;0.00;0.62;5.30;1.30;;;21.30;22.40;;;;;;2244956;61;20379;-64
2022/04/09 02:17:38;0.00;0.00;0.62;0.00;0.00;0.62;3.37;1.40;;;21.30;22.40;;;;;;2245468;61;20379;-65
2022/04/09 02:20:24;0.00;0.00;0.62;0.00;0.00;0.62;2.50;1.40;;;21.20;22.30;;;;;;2248277;61;20391;-68
2022/04/09 02:23:08;0.00;0.00;0.62;0.00;0.00;0.62;3.30;1.40;;;21.20;22.30;;;;;;2247707;61;20391;-64
2022/04/09 02:25:53;0.00;0.00;0.62;0.00;0.00;0.62;2.93;1.43;;;21.20;22.40;;;;;;2247829;61;20366;-64
2022/04/09 02:28:39;0.00;0.00;0.62;0.00;0.00;0.62;4.57;1.33;;;21.10;22.40;;;;;;2247430;61;20368;-65
2022/04/09 02:31:23;0.00;0.00;0.62;0.00;0.00;0.62;2.30;1.33;;;21.10;22.30;;;;;;2248751;61;20391;-68
2022/04/09 02:34:09;0.00;0.00;0.62;0.00;0.00;0.62;3.50;1.63;;;21.10;22.30;;;;;;2247793;61;20367;-65
2022/04/09 02:36:54;0.00;0.00;0.62;0.00;0.00;0.62;3.30;1.73;;;21.00;22.30;;;;;;2247550;61;20363;-65
2022/04/09 02:39:39;0.00;0.00;0.62;0.00;0.00;0.62;4.73;1.50;;;21.00;22.30;;;;;;2247781;61;20853;-70
2022/04/09 02:42:23;0.00;0.00;0.62;0.00;0.00;0.62;3.13;1.40;;;21.00;22.30;;;;;;2247735;61;20814;-65
2022/04/09 02:45:11;0.00;0.00;0.62;0.00;0.00;0.62;2.67;1.37;;;21.00;22.40;;;;;;2248063;61;20359;-65
2022/04/09 02:47:57;0.00;0.00;0.62;0.00;0.00;0.62;2.60;1.17;;;20.90;22.30;;;;;;2244876;61;20448;-65
2022/04/09 02:50:45;0.00;0.00;0.62;0.00;0.00;0.62;2.20;1.17;;;20.90;22.40;;;;;;2247441;61;20382;-66
2022/04/09 02:53:30;0.00;0.00;0.62;0.00;0.00;0.62;4.27;2.20;;;20.90;22.40;;;;;;2248309;61;20391;-66
2022/04/09 02:56:17;0.00;0.00;0.62;0.00;0.00;0.62;3.30;1.30;;;20.90;22.40;;;;;;2244860;61;20407;-66
2022/04/09 02:59:01;0.00;0.00;0.62;0.00;0.00;0.62;2.17;1.00;;;20.80;22.40;;;;;;2244581;61;20372;-66
2022/04/09 03:01:48;0.00;0.00;0.62;0.00;0.00;0.62;3.67;1.90;;;20.80;22.40;;;;;;2247827;61;20915;-66
2022/04/09 03:04:34;0.00;0.00;0.62;0.00;0.00;0.62;4.47;1.60;;;20.80;22.40;;;;;;2247685;61;20372;-65
2022/04/09 03:07:19;0.00;0.00;0.62;0.00;0.00;0.62;3.97;1.30;;;20.80;22.40;;;;;;2248119;61;20411;-63
2022/04/09 03:10:05;0.00;0.00;0.62;0.00;0.00;0.62;3.27;1.37;;;20.80;22.40;;;;;;2248296;61;20387;-66
2022/04/09 03:12:49;0.00;0.00;0.62;0.00;0.00;0.62;3.10;1.20;;;20.70;22.30;;;;;;2248022;61;20378;-66
2022/04/09 03:15:34;0.00;0.00;0.62;0.00;0.00;0.62;3.53;1.70;;;20.70;22.30;;;;;;2248034;61;20783;-66
2022/04/09 03:18:20;0.00;0.00;0.62;0.00;0.00;0.62;2.50;1.23;;;20.70;22.40;;;;;;2247296;61;20376;-65
2022/04/09 03:21:06;0.00;0.00;0.62;0.00;0.00;0.62;3.23;1.30;;;20.60;22.30;;;;;;2247470;61;20531;-65
2022/04/09 03:23:54;0.00;0.00;0.62;0.00;0.00;0.62;2.60;1.33;;;20.70;22.40;;;;;;2248031;61;20411;-65
2022/04/09 03:26:38;0.00;0.00;0.62;0.00;0.00;0.62;3.80;1.60;;;20.60;22.30;;;;;;2247640;61;20387;-66
2022/04/09 03:29:24;0.00;0.00;0.62;0.00;0.00;0.62;6.30;1.50;;;20.60;22.40;;;;;;2244427;61;20363;-65
2022/04/09 03:32:08;0.00;0.00;0.62;0.00;0.00;0.62;2.47;1.30;;;20.60;22.40;;;;;;2247843;61;20367;-65
2022/04/09 03:34:57;0.00;0.00;0.62;0.00;0.00;0.62;3.13;1.53;;;20.60;22.40;;;;;;2247696;61;20360;-67
2022/04/09 03:37:45;0.00;0.00;0.62;0.00;0.00;0.62;2.27;1.50;;;20.50;22.40;;;;;;2245146;61;20915;-64
2022/04/09 03:40:31;0.00;0.00;0.62;0.00;0.00;0.62;4.40;1.73;;;20.50;22.90;;;;;;2247132;61;20395;-66
2022/04/09 03:43:16;0.00;0.00;0.62;0.00;0.00;0.62;2.50;1.30;;;20.50;22.40;;;;;;2247649;61;20779;-68
2022/04/09 03:46:03;0.00;0.00;0.62;0.00;0.00;0.62;3.90;1.60;;;20.50;22.40;;;;;;2247806;61;20859;-66
2022/04/09 03:48:48;0.00;0.00;0.62;0.00;0.00;0.62;4.70;1.60;;;20.40;22.40;;;;;;2247200;61;20363;-66
2022/04/09 03:51:35;0.00;0.00;0.62;0.00;0.00;0.62;3.10;1.33;;;20.50;22.40;;;;;;2247549;61;20503;-66
2022/04/09 03:54:21;0.00;0.00;0.62;0.00;0.00;0.62;2.37;1.23;;;20.40;22.40;;;;;;2247844;61;20620;-66
2022/04/09 03:57:09;0.00;0.00;0.62;0.00;0.00;0.62;2.73;1.27;;;20.40;22.50;;;;;;2247543;61;20391;-66
2022/04/09 04:00:06;0.00;0.00;0.62;0.00;0.00;0.62;3.63;1.20;;;20.40;22.40;;;;;;2247557;61;20407;-67
2022/04/09 04:02:58;0.00;0.00;0.62;0.00;0.00;0.62;2.47;1.50;;;20.30;22.40;;;;;;2248102;61;20900;-65
2022/04/09 04:05:46;0.00;0.00;0.62;0.00;0.00;0.62;2.87;1.40;;;20.30;22.40;;;;;;2247679;61;20774;-65
2022/04/09 04:08:33;0.00;0.00;0.62;0.00;0.00;0.62;3.80;1.57;;;20.30;22.40;;;;;;2247214;61;20888;-66
2022/04/09 04:11:17;0.00;0.00;0.62;0.00;0.00;0.62;3.50;1.23;;;20.20;22.40;;;;;;2244739;61;20927;-65
2022/04/09 04:14:03;0.00;0.00;0.62;0.00;0.00;0.62;2.83;1.07;;;20.20;22.50;;;;;;2247576;61;20403;-65
2022/04/09 04:16:48;0.00;0.00;0.62;0.00;0.00;0.62;2.90;1.20;;;20.20;22.50;;;;;;2247581;61;21011;-64
2022/04/09 04:19:33;0.00;0.00;0.62;0.00;0.00;0.62;3.10;1.30;;;20.10;22.50;;;;;;2247533;61;20391;-66
2022/04/09 04:22:18;0.00;0.00;0.62;0.00;0.00;0.62;3.50;1.47;;;20.10;22.50;;;;;;2247896;61;20395;-65
2022/04/09 04:25:05;0.00;0.00;0.62;0.00;0.00;0.62;3.10;1.23;;;20.10;22.50;;;;;;2247601;61;20422;-66
2022/04/09 04:27:52;0.00;0.00;0.62;0.00;0.00;0.62;4.00;1.50;;;20.10;22.50;;;;;;2246879;61;20399;-65
2022/04/09 04:30:40;0.00;0.00;0.62;0.00;0.00;0.62;4.60;1.70;;;20.10;22.50;;;;;;2247570;61;20388;-66
2022/04/09 04:33:26;0.00;0.00;0.62;0.00;0.00;0.62;3.53;1.53;;;20.10;22.50;;;;;;2247871;61;20398;-66
2022/04/09 04:36:15;0.00;0.00;0.62;0.00;0.00;0.62;3.87;1.43;;;20.00;22.50;;;;;;2244427;61;20770;-66
2022/04/09 04:39:01;0.00;0.00;0.62;0.00;0.00;0.62;5.20;1.67;;;20.00;22.50;;;;;;2246961;61;20492;-64
2022/04/09 04:41:48;0.00;0.00;0.62;0.00;0.00;0.62;4.53;1.43;;;20.00;22.50;;;;;;2247580;61;20910;-65
2022/04/09 04:44:33;0.00;0.00;0.62;0.00;0.00;0.62;2.87;1.20;;;20.00;22.60;;;;;;2247928;61;20423;-67
2022/04/09 04:47:18;0.00;0.00;0.62;0.00;0.00;0.62;4.27;1.90;;;19.90;22.50;;;;;;2247265;61;20406;-65
2022/04/09 04:50:04;0.00;0.00;0.62;0.00;0.00;0.62;3.00;1.60;;;19.90;22.60;;;;;;2246840;61;20980;-66
2022/04/09 04:52:50;0.00;0.00;0.62;0.00;0.00;0.62;6.13;1.30;;;19.90;22.60;;;;;;2244834;61;20371;-64
2022/04/09 04:55:37;0.00;0.00;0.62;0.00;0.00;0.62;3.57;1.60;;;19.90;22.60;;;;;;2247578;61;20363;-65
2022/04/09 04:58:23;0.00;0.00;0.62;0.00;0.00;0.62;2.60;1.20;;;19.90;22.60;;;;;;2247098;61;20414;-70
2022/04/09 05:01:15;0.00;0.00;0.62;0.00;0.00;0.62;2.60;1.33;;;19.90;22.60;;;;;;2247312;61;20472;-65
2022/04/09 05:04:05;0.00;0.00;0.62;0.00;0.00;0.62;3.90;1.20;;;19.90;22.60;;;;;;2244709;61;20423;-66
2022/04/09 05:06:53;0.00;0.00;0.62;0.00;0.00;0.62;3.93;2.03;;;19.80;22.60;;;;;;2248535;61;20387;-64
2022/04/09 05:09:41;0.00;0.00;0.62;0.00;0.00;0.62;3.20;1.30;;;19.80;22.60;;;;;;2246870;61;20419;-64
2022/04/09 05:12:26;0.00;0.00;0.62;0.00;0.00;0.62;4.13;1.47;;;19.80;22.60;;;;;;2247962;61;20450;-65
2022/04/09 05:15:15;0.00;0.00;0.62;0.00;0.00;0.62;3.13;1.03;;;19.80;22.60;;;;;;2248663;61;20472;-65
2022/04/09 05:18:01;0.00;0.00;0.62;0.00;0.00;0.62;2.60;1.17;;;19.70;22.60;;;;;;2245408;61;20371;-66
2022/04/09 05:20:46;0.00;0.00;0.62;0.00;0.00;0.62;3.10;1.63;;;19.80;22.70;;;;;;2248701;61;20435;-65
2022/04/09 05:23:33;0.00;0.00;0.62;0.00;0.00;0.62;1.70;1.10;;;19.70;22.60;;;;;;2245262;61;20367;-65
2022/04/09 05:26:18;0.00;0.00;0.62;0.00;0.00;0.62;3.33;1.73;;;19.70;22.60;;;;;;2248402;61;20371;-65
2022/04/09 05:29:04;0.00;0.00;0.62;0.00;0.00;0.62;2.93;1.80;;;19.70;22.60;;;;;;2248300;61;20359;-67
2022/04/09 05:31:50;0.00;0.00;0.62;0.00;0.00;0.62;2.23;1.30;;;19.70;22.60;;;;;;2246902;61;20399;-68
2022/04/09 05:34:35;0.00;0.00;0.62;0.00;0.00;0.62;4.70;1.93;;;19.70;22.70;;;;;;2245191;61;20383;-67
2022/04/09 05:37:20;0.00;0.00;0.62;0.00;0.00;0.62;3.27;1.40;;;19.60;22.60;;;;;;2245874;61;20407;-66
2022/04/09 05:40:07;0.00;0.00;0.62;0.00;0.00;0.62;2.77;1.33;;;19.60;22.60;;;;;;2245111;61;20430;-68
2022/04/09 05:42:52;0.00;0.00;0.62;0.00;0.00;0.62;3.87;1.70;;;19.50;22.60;;;;;;2245888;61;20387;-66
2022/04/09 05:45:38;0.00;0.00;0.62;0.00;0.00;0.62;4.23;1.63;;;19.50;23.20;;;;;;2243821;61;20372;-64
2022/04/09 05:48:25;0.00;0.00;0.62;0.00;0.00;0.62;4.60;1.50;;;19.50;22.70;;;;;;2245475;61;20379;-66
2022/04/09 05:51:13;0.00;0.00;0.62;0.00;0.00;0.62;5.80;1.40;;;19.50;22.80;;;;;;2246037;61;20395;-67
2022/04/09 05:54:01;0.00;0.00;0.62;0.00;0.00;0.62;3.10;1.50;;;19.50;22.80;;;;;;2244686;61;20387;-67
2022/04/09 05:56:48;0.00;0.00;0.62;0.00;0.00;0.62;5.33;1.70;;;19.50;22.80;;;;;;2245910;61;20363;-70
2022/04/09 05:59:33;0.00;0.00;0.62;0.00;0.00;0.62;4.70;1.80;;;19.40;22.80;;;;;;2248590;61;20663;-66
2022/04/09 06:02:17;0.00;0.00;0.62;0.00;0.00;0.62;6.53;1.60;;;19.40;22.80;;;;;;2248415;61;20829;-68
2022/04/09 06:05:05;0.00;0.00;0.62;0.00;0.00;0.62;3.10;1.67;;;19.40;22.80;;;;;;2245557;61;20371;-68
2022/04/09 06:07:50;0.00;0.00;0.62;0.00;0.00;0.62;2.23;1.30;;;19.30;22.60;;;;;;2244424;61;20394;-66
2022/04/09 06:10:36;0.00;0.00;0.62;0.00;0.00;0.62;2.93;1.63;;;19.30;22.60;;;;;;2245397;61;20378;-66
2022/04/09 06:13:21;0.00;0.00;0.62;0.00;0.00;0.62;3.27;2.17;;;19.20;22.60;;;;;;2245439;61;20411;-68
2022/04/09 06:16:08;0.00;0.00;0.62;0.00;0.00;0.62;3.37;1.50;;;19.20;23.00;;;;;;2244304;61;20375;-67
2022/04/09 06:18:55;0.00;0.00;0.62;0.00;0.00;0.62;2.80;1.37;;;19.20;22.90;;;;;;2245261;61;20446;-66
2022/04/09 06:21:41;0.00;0.00;0.62;0.00;0.00;0.62;3.70;1.63;;;19.10;22.90;;;;;;2245344;61;20472;-67
2022/04/09 06:24:28;0.00;0.00;0.62;0.00;0.00;0.62;2.70;2.00;;;19.10;22.90;;;;;;2244444;61;20457;-66
2022/04/09 06:27:13;0.00;0.00;0.62;0.00;0.00;0.62;3.83;1.70;;;19.10;23.00;;;;;;2245244;61;20430;-66
2022/04/09 06:30:02;0.00;0.00;0.62;0.00;0.00;0.62;1.53;1.03;;;19.10;23.00;;;;;;2244563;61;20427;-63
2022/04/09 06:32:48;0.00;0.00;0.62;0.00;0.00;0.62;4.23;1.30;;;19.10;23.00;;;;;;2245586;61;20428;-65
2022/04/09 06:35:32;0.00;0.00;0.62;0.00;0.00;0.62;3.47;1.20;;;19.10;23.00;;;;;;2245582;61;20903;-64
2022/04/09 06:38:19;0.00;0.00;0.62;0.00;0.00;0.62;3.90;1.30;;;19.10;23.10;;;;;;2244063;61;20368;-64
2022/04/09 06:41:03;0.00;0.00;0.62;0.00;0.00;0.62;3.43;1.40;;;19.10;23.20;;;;;;2245247;61;20403;-63
2022/04/09 06:43:55;0.00;0.00;0.62;0.00;0.00;0.62;3.07;1.63;;;19.10;23.70;;;;;;2245342;61;20441;-68
2022/04/09 06:46:48;0.00;0.00;0.62;0.00;0.00;0.62;6.00;1.70;;;19.10;23.10;;;;;;2244617;61;20489;-67
2022/04/09 06:49:49;0.00;0.00;0.62;0.00;0.00;0.62;3.80;2.10;;;19.10;23.10;;;;;;2245156;61;20378;-67
2022/04/09 06:52:37;0.00;0.00;0.62;0.00;0.00;0.62;2.57;1.27;;;19.00;22.90;;;;;;2244681;61;20368;-67
2022/04/09 06:55:29;0.00;0.00;0.62;0.00;0.00;0.62;3.20;1.50;;;19.00;22.80;;;;;;2245347;61;20875;-68
2022/04/09 06:58:14;0.00;0.00;0.62;0.00;0.00;0.62;5.77;1.40;;;19.00;22.80;;;;;;2242644;61;20423;-66
2022/04/09 07:00:59;0.00;0.00;0.62;0.00;0.00;0.62;6.20;1.40;;;18.90;22.80;;;;;;2244582;61;20520;-67
2022/04/09 07:03:44;0.00;0.00;0.62;0.00;0.00;0.62;4.40;1.90;;;18.90;22.80;;;;;;2245279;61;20367;-68
2022/04/09 07:06:30;0.00;0.00;0.62;0.00;0.00;0.62;3.20;1.33;;;18.80;22.70;;;;;;2248407;61;20406;-67
2022/04/09 07:09:14;0.00;0.00;0.62;0.00;0.00;0.62;3.73;1.93;;;18.80;22.70;;;;;;2247840;61;20371;-64
2022/04/09 07:12:00;0.00;0.00;0.62;0.00;0.00;0.62;2.53;1.30;;;18.80;22.80;;;;;;2248429;61;20371;-68
2022/04/09 07:14:45;0.00;0.00;0.62;0.00;0.00;0.62;6.50;1.43;;;18.70;22.80;;;;;;2247646;61;20376;-66
2022/04/09 07:17:30;0.00;0.00;0.62;0.00;0.00;0.62;3.90;1.70;;;18.70;23.00;;;;;;2248505;61;20359;-64
2022/04/09 07:20:15;0.00;0.00;0.62;0.00;0.00;0.62;2.37;1.10;;;18.70;23.10;;;;;;2248324;61;20391;-66
2022/04/09 07:23:02;0.00;0.00;0.62;0.00;0.00;0.62;2.30;1.17;;;18.70;23.20;;;;;;2247647;61;20423;-63
2022/04/09 07:25:49;0.00;0.00;0.62;0.00;0.00;0.62;2.63;1.10;;;18.80;23.20;;;;;;2248277;61;20789;-64
2022/04/09 07:28:36;0.00;0.00;0.62;0.00;0.00;0.62;2.87;1.40;;;18.80;23.20;;;;;;2244686;61;20931;-64
2022/04/09 07:31:20;0.00;0.00;0.62;0.00;0.00;0.62;2.27;1.10;;;18.90;23.20;;;;;;2248016;61;20959;-65
2022/04/09 07:34:06;0.00;0.00;0.62;0.00;0.00;0.62;2.27;1.10;;;18.90;23.20;;;;;;2248342;61;20414;-65
2022/04/09 07:36:52;0.00;0.00;0.62;0.00;0.00;0.62;1.90;1.13;;;19.00;23.20;;;;;;2247156;61;20841;-63
2022/04/09 07:39:37;0.00;0.00;0.62;0.00;0.00;0.62;3.50;1.37;;;19.00;23.20;;;;;;2248433;61;20411;-63
2022/04/09 07:42:22;0.00;0.00;0.62;0.00;0.00;0.62;2.53;1.20;;;19.10;23.20;;;;;;2248607;61;20380;-62
2022/04/09 07:45:10;0.00;0.00;0.62;0.00;0.00;0.62;1.43;0.90;;;19.20;23.30;;;;;;2247382;61;20391;-66
2022/04/09 07:47:56;0.00;0.00;0.62;0.00;0.00;0.62;2.17;1.33;;;19.20;23.20;;;;;;2248063;61;20931;-64
2022/04/09 07:50:41;0.00;0.00;0.62;0.00;0.00;0.62;1.83;0.90;;;19.20;23.20;;;;;;2248118;61;20391;-66
2022/04/09 07:53:25;0.00;0.00;0.62;0.00;0.00;0.62;2.03;1.20;;;19.30;23.20;;;;;;2247797;61;20395;-63
2022/04/09 07:56:10;0.00;0.00;0.62;0.00;0.00;0.62;2.50;1.17;;;19.30;23.20;;;;;;2248008;61;20460;-64
2022/04/09 07:58:54;0.00;0.00;0.62;0.00;0.00;0.62;2.40;1.20;;;19.40;23.20;;;;;;2246954;61;20368;-65
2022/04/09 08:01:40;0.00;0.00;0.62;0.00;0.00;0.62;2.43;1.40;;;19.40;23.20;;;;;;2248316;61;20386;-64
2022/04/09 08:04:25;0.00;0.00;0.62;0.00;0.00;0.62;2.67;1.20;;;19.50;23.30;;;;;;2248580;61;20507;-63
2022/04/09 08:07:09;0.00;0.00;0.62;0.00;0.00;0.62;2.33;1.00;;;19.50;23.30;;;;;;2247096;61;20446;-62
2022/04/09 08:09:54;0.00;0.00;0.62;0.00;0.00;0.62;3.07;1.30;;;19.50;23.20;;;;;;2248037;61;20388;-63
2022/04/09 08:12:39;0.00;0.00;0.62;0.00;0.00;0.62;3.30;1.00;;;19.60;23.30;;;;;;2248247;61;20394;-62
2022/04/09 08:15:25;0.00;0.00;0.62;0.00;0.00;0.62;1.90;1.00;;;19.60;23.30;;;;;;2247679;61;20363;-62
2022/04/09 08:18:11;0.00;0.00;0.62;0.00;0.00;0.62;2.20;1.07;;;19.60;23.20;;;;;;2247947;61;20418;-62
2022/04/09 08:20:56;0.00;0.00;0.62;0.00;0.00;0.62;2.00;0.90;;;19.70;23.30;;;;;;2247568;61;20439;-63
2022/04/09 08:23:40;0.00;0.00;0.62;0.00;0.00;0.62;2.63;1.20;;;19.80;23.30;;;;;;2248700;61;20371;-64
2022/04/09 08:26:25;0.00;0.00;0.62;0.00;0.00;0.62;2.33;1.00;;;19.80;23.30;;;;;;2248269;61;20362;-62
2022/04/09 08:29:15;0.00;0.00;0.62;0.00;0.00;0.62;1.70;0.80;;;19.80;23.30;;;;;;2246836;61;20431;-66
2022/04/09 08:32:01;0.00;0.00;0.62;0.00;0.00;0.62;1.40;0.80;;;19.80;23.30;;;;;;2248363;61;20390;-63
2022/04/09 08:34:46;0.00;0.00;0.62;0.00;0.00;0.62;1.70;1.00;;;19.90;23.30;;;;;;2248217;61;20380;-61
2022/04/09 08:37:31;0.00;0.00;0.62;0.00;0.00;0.62;1.70;0.83;;;19.90;23.30;;;;;;2247469;61;20917;-63
2022/04/09 08:40:16;0.00;0.00;0.62;0.00;0.00;0.62;1.53;0.83;;;20.00;23.30;;;;;;2247986;61;20809;-63
2022/04/09 08:43:01;0.00;0.00;0.62;0.00;0.00;0.62;1.60;0.80;;;20.00;23.30;;;;;;2248097;61;20375;-63
2022/04/09 08:45:46;0.00;0.00;0.62;0.00;0.00;0.62;1.60;0.90;;;20.00;23.30;;;;;;2248035;61;20391;-63
2022/04/09 08:48:32;0.00;0.00;0.62;0.00;0.00;0.62;1.50;0.97;;;20.00;23.30;;;;;;2247851;61;20487;-65
2022/04/09 08:51:19;0.00;0.00;0.62;0.00;0.00;0.62;2.07;1.07;;;20.10;23.30;;;;;;2247331;61;20412;-66
2022/04/09 08:54:04;0.00;0.00;0.62;0.00;0.00;0.62;1.30;0.77;;;20.10;23.30;;;;;;2248187;61;20395;-62
2022/04/09 08:56:50;0.00;0.00;0.62;0.00;0.00;0.62;1.93;0.80;;;20.10;23.30;;;;;;2248060;61;20363;-64
2022/04/09 08:59:35;0.00;0.00;0.62;0.00;0.00;0.62;2.10;0.97;;;20.20;23.30;;;;;;2247500;61;20751;-65
2022/04/09 09:02:20;0.00;0.00;0.62;0.00;0.00;0.62;2.03;0.80;;;20.20;23.30;;;;;;2247850;61;20359;-64
2022/04/09 09:05:05;0.00;0.00;0.62;0.00;0.00;0.62;1.60;1.03;;;20.20;23.30;;;;;;2248045;61;20371;-68
2022/04/09 09:07:51;0.00;0.00;0.62;0.00;0.00;0.62;1.83;0.97;;;20.30;23.30;;;;;;2247652;61;20387;-64
2022/04/09 09:10:37;0.00;0.00;0.62;0.00;0.00;0.62;1.77;0.80;;;20.30;23.30;;;;;;2248005;61;20446;-61
2022/04/09 09:13:22;0.00;0.00;0.62;0.00;0.00;0.62;1.53;0.80;;;20.30;23.20;;;;;;2247283;61;20372;-63
2022/04/09 09:16:06;0.00;0.00;0.62;0.00;0.00;0.62;2.80;1.17;;;20.30;23.20;;;;;;2247942;61;20479;-62
2022/04/09 09:18:53;0.00;0.00;0.62;0.00;0.00;0.62;1.70;0.60;;;20.40;23.30;;;;;;2248124;61;20760;-64
2022/04/09 09:21:38;0.00;0.00;0.62;0.00;0.00;0.62;1.50;0.70;;;20.40;23.20;;;;;;2247409;61;20395;-64
2022/04/09 09:24:23;0.00;0.00;0.62;0.00;0.00;0.62;1.60;0.70;;;20.40;23.70;;;;;;2248127;61;20771;-63
2022/04/09 09:27:08;0.00;0.00;0.62;0.00;0.00;0.62;3.10;1.30;;;20.50;23.30;;;;;;2247988;61;20371;-63
2022/04/09 09:29:55;0.00;0.00;0.62;0.00;0.00;0.62;2.93;1.20;;;20.50;23.20;;;;;;2247627;61;20403;-63
2022/04/09 09:32:41;0.00;0.00;0.62;0.00;0.00;0.62;1.50;0.70;;;20.50;23.20;;;;;;2248228;61;20368;-64
2022/04/09 09:35:45;0.00;0.00;0.62;0.00;0.00;0.62;1.53;0.80;;;20.60;23.20;;;;;;2246653;61;20359;-62
2022/04/09 09:38:33;0.00;0.00;0.62;0.00;0.00;0.62;1.50;0.80;;;20.60;23.20;;;;;;2247503;61;20363;-63
2022/04/09 09:41:24;0.00;0.00;0.62;0.00;0.00;0.62;1.40;0.70;;;20.60;23.20;;;;;;2248005;61;20424;-62
2022/04/09 09:44:09;0.00;0.00;0.62;0.00;0.00;0.62;1.87;0.90;;;20.70;23.20;;;;;;2247335;61;20387;-63
2022/04/09 09:47:03;0.00;0.00;0.62;0.00;0.00;0.62;1.30;0.80;;;20.70;23.20;;;;;;2248088;61;20420;-64
2022/04/09 09:49:53;0.00;0.00;0.62;0.00;0.00;0.62;1.87;0.93;;;20.70;23.20;;;;;;2246645;61;20468;-64
2022/04/09 09:52:38;0.00;0.00;0.62;0.00;0.00;0.62;2.03;0.80;;;20.70;23.20;;;;;;2247998;61;20391;-66
2022/04/09 09:55:24;0.00;0.00;0.62;0.00;0.00;0.62;2.10;0.80;;;20.80;23.20;;;;;;2248292;61;20433;-64
2022/04/09 09:58:13;0.00;0.00;0.62;0.00;0.00;0.62;1.80;0.80;;;20.80;23.20;;;;;;2246701;61;20415;-64
2022/04/09 10:00:59;0.00;0.00;0.62;0.00;0.00;0.62;1.30;0.70;;;20.80;23.10;;;;;;2248368;61;20387;-67
2022/04/09 10:03:43;0.00;0.00;0.62;0.00;0.00;0.62;1.73;0.80;;;20.90;23.20;;;;;;2248389;61;20374;-64
2022/04/09 10:06:29;0.00;0.00;0.62;0.00;0.00;0.62;1.53;0.83;;;20.90;23.20;;;;;;2248036;61;20363;-62
2022/04/09 10:09:14;0.00;0.00;0.62;0.00;0.00;0.62;1.50;0.90;;;20.90;23.10;;;;;;2248115;61;20387;-63
2022/04/09 10:11:59;0.00;0.00;0.62;0.00;0.00;0.62;1.60;0.70;;;21.00;23.20;;;;;;2248303;61;20375;-64
2022/04/09 10:14:50;0.00;0.00;0.62;0.00;0.00;0.62;2.20;1.00;;;21.00;23.20;;;;;;2248878;61;20444;-63
2022/04/09 10:17:37;0.00;0.00;0.62;0.00;0.00;0.62;1.30;0.70;;;21.00;23.20;;;;;;2248760;61;20869;-64
2022/04/09 10:20:25;0.00;0.00;0.62;0.00;0.00;0.62;1.20;0.70;;;21.00;23.10;;;;;;2247769;61;20475;-66
2022/04/09 10:23:11;0.00;0.00;0.62;0.00;0.00;0.62;1.90;0.70;;;21.00;23.10;;;;;;2248787;61;20364;-62
2022/04/09 10:25:56;0.00;0.00;0.62;0.00;0.00;0.62;1.90;0.80;;;21.00;23.10;;;;;;2248553;61;20398;-63
2022/04/09 10:28:40;0.00;0.00;0.62;0.00;0.00;0.62;1.40;0.80;;;21.10;23.10;;;;;;2247635;61;20387;-63
2022/04/09 10:31:36;0.00;0.00;0.62;0.00;0.00;0.62;1.67;0.90;;;21.10;23.10;;;;;;2248771;61;20476;-65
2022/04/09 10:34:20;0.00;0.00;0.62;0.00;0.00;0.62;1.47;0.83;;;21.20;23.20;;;;;;2247699;61;20368;-65
2022/04/09 10:37:05;0.00;0.00;0.62;0.00;0.00;0.62;1.50;0.80;;;21.20;23.10;;;;;;2248895;61;20850;-65
2022/04/09 10:39:52;0.00;0.00;0.62;0.00;0.00;0.62;1.97;0.80;;;21.20;23.10;;;;;;2248381;61;20450;-64
2022/04/09 10:42:48;0.00;0.00;0.62;0.00;0.00;0.62;1.63;1.10;;;21.20;23.10;;;;;;2247466;61;20347;-64
2022/04/09 10:46:17;0.00;0.00;0.62;0.00;0.00;0.62;1.40;0.70;;;21.20;23.10;;;;;;2248403;61;20368;-64
2022/04/09 10:49:21;0.00;0.00;0.62;0.00;0.00;0.62;1.50;0.83;;;21.20;23.20;;;;;;2247397;61;20463;-64
2022/04/09 10:52:14;0.00;0.00;0.62;0.00;0.00;0.62;1.40;0.70;;;21.30;23.20;;;;;;2248848;61;20422;-65
2022/04/09 10:55:31;0.00;0.00;0.62;0.00;0.00;0.62;1.40;0.70;;;21.30;23.30;;;;;;2248557;61;20792;-64
2022/04/09 10:58:16;0.00;0.00;0.62;0.00;0.00;0.62;1.93;1.17;;;21.40;23.30;;;;;;2247545;61;20466;-63